Time;durP1;ratioP1;P1;durP2;ratioP2;P2;SDS_P1;SDS_P2;PMS_P1;PMS_P2;Temp;Humidity;BMP_temperature;BMP_pressure;BME280_temperature;BME280_humidity;BME280_pressure;Samples;Min_cycle;Max_cycle;Signal;HPM_P1;HPM_P2
2023/10/27 00:01:59;;;;;;;3.50;3.20;;;12.70;99.90;;;;;;5075000;28;20179;-76
2023/10/27 00:04:24;;;;;;;3.70;3.40;;;13.20;99.90;;;;;;5076620;28;20177;-76
2023/10/27 00:06:50;;;;;;;3.37;3.07;;;12.70;99.90;;;;;;5082211;28;20186;-76
2023/10/27 00:09:16;;;;;;;3.23;3.03;;;12.80;99.90;;;;;;5083084;28;20210;-76
2023/10/27 00:11:41;;;;;;;3.20;3.00;;;12.80;99.90;;;;;;5077147;28;20229;-75
2023/10/27 00:14:10;;;;;;;3.60;3.30;;;12.80;99.90;;;;;;5078715;28;20182;-76
2023/10/27 00:16:36;;;;;;;4.30;3.67;;;12.80;99.90;;;;;;5075698;28;20175;-78
2023/10/27 00:19:02;;;;;;;3.57;3.30;;;12.80;99.90;;;;;;5075905;28;20191;-76
2023/10/27 00:21:27;;;;;;;4.50;3.27;;;12.80;99.90;;;;;;5075627;28;20174;-78
2023/10/27 00:23:53;;;;;;;3.30;3.00;;;12.80;99.90;;;;;;5075713;28;20177;-78
2023/10/27 00:26:19;;;;;;;3.10;2.90;;;12.80;99.90;;;;;;5075227;28;20230;-77
2023/10/27 00:28:46;;;;;;;3.20;3.10;;;12.80;99.90;;;;;;5075595;28;20627;-75
2023/10/27 00:31:12;;;;;;;3.27;3.07;;;12.90;99.90;;;;;;5075116;28;20179;-76
2023/10/27 00:33:38;;;;;;;4.87;3.27;;;12.80;99.90;;;;;;5077741;28;20191;-76
2023/10/27 00:36:04;;;;;;;3.27;3.07;;;12.80;99.90;;;;;;5085354;28;20206;-75
2023/10/27 00:38:30;;;;;;;3.07;2.90;;;12.80;99.90;;;;;;5078187;28;20176;-78
2023/10/27 00:40:56;;;;;;;4.10;3.50;;;12.80;99.90;;;;;;5075788;28;20182;-77
2023/10/27 00:43:23;;;;;;;3.93;2.83;;;12.90;99.90;;;;;;5075583;28;20171;-75
2023/10/27 00:45:53;;;;;;;3.00;2.80;;;12.90;99.90;;;;;;5075092;28;20260;-75
2023/10/27 00:48:21;;;;;;;4.67;3.10;;;12.80;99.90;;;;;;5075517;28;20170;-77
2023/10/27 00:50:48;;;;;;;4.67;3.03;;;12.90;99.90;;;;;;5075563;28;20238;-76
2023/10/27 00:53:18;;;;;;;3.33;3.10;;;12.90;99.90;;;;;;5075622;28;20189;-77
2023/10/27 00:55:44;;;;;;;3.70;3.03;;;13.00;99.90;;;;;;5073472;28;20346;-78
2023/10/27 00:58:12;;;;;;;3.50;3.20;;;12.90;99.90;;;;;;5075490;28;20200;-76
2023/10/27 01:00:38;;;;;;;2.90;2.70;;;12.90;99.90;;;;;;5077854;28;20179;-80
2023/10/27 01:03:04;;;;;;;3.73;3.10;;;12.90;99.90;;;;;;5078111;28;20171;-79
2023/10/27 01:05:30;;;;;;;3.20;3.00;;;13.00;99.90;;;;;;5079024;28;20189;-77
2023/10/27 01:07:56;;;;;;;3.43;3.13;;;12.90;99.90;;;;;;5089820;28;20561;-75
2023/10/27 01:10:22;;;;;;;2.93;2.63;;;12.90;99.90;;;;;;5088747;28;20209;-76
2023/10/27 01:12:50;;;;;;;3.40;3.10;;;12.90;99.90;;;;;;5076606;28;20187;-77
2023/10/27 01:15:16;;;;;;;4.80;3.17;;;12.90;99.90;;;;;;5077118;28;20182;-77
2023/10/27 01:17:42;;;;;;;3.20;3.00;;;12.80;99.90;;;;;;5075336;28;20171;-78
2023/10/27 01:20:09;;;;;;;3.27;3.00;;;12.80;99.90;;;;;;5074276;28;20185;-78
2023/10/27 01:22:41;;;;;;;3.33;3.13;;;12.90;99.90;;;;;;5073051;28;20175;-77
2023/10/27 01:25:07;;;;;;;3.50;3.20;;;12.90;99.90;;;;;;5074433;28;20595;-77
2023/10/27 01:27:33;;;;;;;3.47;3.27;;;12.90;99.90;;;;;;5089214;28;20225;-74
2023/10/27 01:29:59;;;;;;;3.40;3.03;;;13.00;99.90;;;;;;5075815;28;20297;-77
2023/10/27 01:32:25;;;;;;;2.77;2.67;;;13.00;99.90;;;;;;5073821;28;20183;-76
2023/10/27 01:34:50;;;;;;;2.90;2.70;;;13.00;99.90;;;;;;5074521;28;20712;-76
2023/10/27 01:37:16;;;;;;;5.90;2.93;;;13.00;99.90;;;;;;5075238;28;20186;-75
2023/10/27 01:39:44;;;;;;;3.47;3.17;;;12.90;99.90;;;;;;5076770;28;20415;-77
2023/10/27 01:42:10;;;;;;;3.03;2.70;;;12.80;99.90;;;;;;5073340;28;20175;-76
2023/10/27 01:44:36;;;;;;;3.17;2.97;;;12.90;99.90;;;;;;5073489;28;20186;-76
2023/10/27 01:47:01;;;;;;;3.23;2.93;;;12.90;99.90;;;;;;5075439;28;20180;-78
2023/10/27 01:49:27;;;;;;;5.17;3.27;;;12.90;99.90;;;;;;5077094;28;20238;-75
2023/10/27 01:51:53;;;;;;;3.27;2.97;;;12.80;99.90;;;;;;5076644;28;20248;-77
2023/10/27 01:54:19;;;;;;;3.30;3.10;;;12.90;99.90;;;;;;5073459;28;20181;-77
2023/10/27 01:56:44;;;;;;;3.33;3.07;;;12.90;99.90;;;;;;5074121;28;20177;-77
2023/10/27 01:59:10;;;;;;;3.30;3.00;;;12.80;99.90;;;;;;5073940;28;20179;-76
2023/10/27 02:01:36;;;;;;;3.40;3.20;;;12.80;99.90;;;;;;5075070;28;20221;-77
2023/10/27 02:04:02;;;;;;;3.60;3.30;;;12.80;99.90;;;;;;5081120;28;20172;-76
2023/10/27 02:06:30;;;;;;;4.23;3.13;;;12.80;99.90;;;;;;5075283;28;20642;-77
2023/10/27 02:08:56;;;;;;;3.40;3.10;;;12.80;99.90;;;;;;5076853;28;20195;-78
2023/10/27 02:11:23;;;;;;;3.20;3.00;;;12.90;99.90;;;;;;5073224;28;20183;-76
2023/10/27 02:13:49;;;;;;;3.70;3.30;;;12.90;99.90;;;;;;5074563;28;20215;-76
2023/10/27 02:16:15;;;;;;;2.93;2.73;;;12.80;99.90;;;;;;5073364;28;20175;-78
2023/10/27 02:18:40;;;;;;;3.47;3.27;;;12.90;99.90;;;;;;5079269;28;20155;-77
2023/10/27 02:21:06;;;;;;;3.20;3.00;;;12.90;99.90;;;;;;5093065;28;20179;-77
2023/10/27 02:23:33;;;;;;;3.43;3.00;;;12.90;99.90;;;;;;5078694;28;20622;-77
2023/10/27 02:25:58;;;;;;;4.53;3.10;;;12.90;99.90;;;;;;5074851;28;20684;-79
2023/10/27 02:28:24;;;;;;;3.13;2.90;;;12.90;99.90;;;;;;5073439;28;20175;-78
2023/10/27 02:30:50;;;;;;;3.30;3.00;;;12.90;99.90;;;;;;5073812;28;20198;-76
2023/10/27 02:33:17;;;;;;;3.27;3.00;;;12.90;99.90;;;;;;5073927;28;20203;-77
2023/10/27 02:35:42;;;;;;;4.53;4.07;;;12.90;99.90;;;;;;5073485;28;20213;-76
2023/10/27 02:38:08;;;;;;;3.30;3.10;;;12.90;99.90;;;;;;5074328;28;20614;-77
2023/10/27 02:40:38;;;;;;;3.00;2.80;;;12.90;99.90;;;;;;5074849;28;20217;-77
2023/10/27 02:43:03;;;;;;;3.27;3.07;;;12.90;99.90;;;;;;5072271;28;20200;-75
2023/10/27 02:45:32;;;;;;;3.30;3.10;;;12.90;99.90;;;;;;5077032;28;20208;-78
2023/10/27 02:47:58;;;;;;;2.90;2.70;;;12.90;99.90;;;;;;5079921;28;20547;-78
2023/10/27 02:50:23;;;;;;;3.23;3.03;;;12.90;99.90;;;;;;5075503;28;20275;-75
2023/10/27 02:52:49;;;;;;;4.20;3.10;;;12.90;99.90;;;;;;5078581;28;20175;-77
2023/10/27 02:55:15;;;;;;;3.10;2.73;;;12.90;99.90;;;;;;5074503;28;20175;-78
2023/10/27 02:57:41;;;;;;;3.43;3.13;;;12.90;99.90;;;;;;5079573;28;20171;-76
2023/10/27 03:00:07;;;;;;;3.30;3.10;;;12.90;99.90;;;;;;5079157;28;20185;-76
2023/10/27 03:02:34;;;;;;;3.30;3.00;;;12.90;99.90;;;;;;5088890;28;20644;-78
2023/10/27 03:04:59;;;;;;;3.50;3.30;;;12.90;99.90;;;;;;5074217;28;20187;-78
2023/10/27 03:07:25;;;;;;;3.37;3.10;;;12.90;99.90;;;;;;5074192;28;20246;-76
2023/10/27 03:09:51;;;;;;;4.47;3.00;;;12.90;99.90;;;;;;5074930;28;20226;-77
2023/10/27 03:12:17;;;;;;;3.30;3.10;;;12.90;99.90;;;;;;5072518;28;20246;-77
2023/10/27 03:14:43;;;;;;;3.20;3.00;;;12.90;99.90;;;;;;5072704;28;20710;-76
2023/10/27 03:17:09;;;;;;;2.77;2.67;;;12.90;99.90;;;;;;5070562;28;20182;-77
2023/10/27 03:19:35;;;;;;;3.87;3.57;;;12.80;99.90;;;;;;5072866;28;20261;-80
2023/10/27 03:22:02;;;;;;;3.30;3.10;;;12.80;99.90;;;;;;5072721;28;20171;-77
2023/10/27 03:24:28;;;;;;;3.53;3.27;;;12.80;99.90;;;;;;5071811;28;20191;-77
2023/10/27 03:26:57;;;;;;;3.80;3.50;;;12.90;99.90;;;;;;5074105;28;20326;-77
2023/10/27 03:29:23;;;;;;;3.10;2.90;;;12.90;99.90;;;;;;5073519;28;20809;-78
2023/10/27 03:31:50;;;;;;;4.67;3.07;;;12.90;99.90;;;;;;5074287;28;20179;-78
2023/10/27 03:34:16;;;;;;;3.60;3.30;;;12.90;99.90;;;;;;5075106;28;20209;-76
2023/10/27 03:36:41;;;;;;;3.50;3.20;;;12.90;99.90;;;;;;5072305;28;20202;-78
2023/10/27 03:39:07;;;;;;;3.23;3.00;;;12.90;99.90;;;;;;5072594;28;20227;-79
2023/10/27 03:41:33;;;;;;;3.20;2.90;;;13.00;99.90;;;;;;5070860;28;20190;-77
2023/10/27 03:43:59;;;;;;;3.30;3.10;;;13.00;99.90;;;;;;5071810;28;20197;-75
2023/10/27 03:46:24;;;;;;;3.77;2.80;;;12.90;99.90;;;;;;5073139;28;20201;-78
2023/10/27 03:48:50;;;;;;;3.23;3.00;;;13.00;99.90;;;;;;5073406;28;20175;-80
2023/10/27 03:51:16;;;;;;;3.13;2.93;;;13.00;99.90;;;;;;5074864;28;20191;-76
2023/10/27 03:53:42;;;;;;;3.37;2.80;;;13.00;99.90;;;;;;5070962;28;20178;-78
2023/10/27 03:56:07;;;;;;;3.47;2.93;;;13.00;99.90;;;;;;5074475;28;20221;-76
2023/10/27 03:58:33;;;;;;;3.17;2.97;;;13.00;99.90;;;;;;5072276;28;20684;-77
2023/10/27 04:00:59;;;;;;;3.13;2.93;;;13.00;99.90;;;;;;5071067;28;20171;-79
2023/10/27 04:03:25;;;;;;;3.17;2.97;;;12.90;99.90;;;;;;5072866;28;20240;-76
2023/10/27 04:05:51;;;;;;;3.40;3.10;;;13.00;99.90;;;;;;5085024;28;20178;-77
2023/10/27 04:08:16;;;;;;;3.43;3.23;;;13.00;99.90;;;;;;5078164;28;20249;-78
2023/10/27 04:10:42;;;;;;;3.47;3.20;;;13.00;99.90;;;;;;5076728;28;20711;-78
2023/10/27 04:13:08;;;;;;;4.73;3.10;;;13.00;99.90;;;;;;5076706;28;20181;-76
2023/10/27 04:15:34;;;;;;;3.53;3.23;;;12.90;99.90;;;;;;5078367;28;20167;-75
2023/10/27 04:18:00;;;;;;;3.50;3.20;;;12.90;99.90;;;;;;5076218;28;20171;-76
2023/10/27 04:20:26;;;;;;;4.13;3.10;;;12.90;99.90;;;;;;5077446;28;20179;-76
2023/10/27 04:22:52;;;;;;;3.57;3.37;;;12.90;99.90;;;;;;5078201;28;20171;-78
2023/10/27 04:25:17;;;;;;;5.90;3.20;;;12.80;99.90;;;;;;5077557;28;20215;-78
2023/10/27 04:27:43;;;;;;;4.17;3.77;;;12.70;99.90;;;;;;5078111;28;20155;-78
2023/10/27 04:30:11;;;;;;;3.73;3.43;;;12.70;99.90;;;;;;5098913;28;20213;-76
2023/10/27 04:32:40;;;;;;;4.27;3.23;;;12.80;99.90;;;;;;5087449;28;20194;-77
2023/10/27 04:35:08;;;;;;;4.10;3.80;;;12.80;99.90;;;;;;5077759;28;20187;-77
2023/10/27 04:37:34;;;;;;;3.90;3.57;;;12.80;99.90;;;;;;5084274;28;20171;-78
2023/10/27 04:40:00;;;;;;;4.07;3.70;;;12.80;99.90;;;;;;5077318;28;20174;-76
2023/10/27 04:42:27;;;;;;;3.70;3.40;;;12.70;99.90;;;;;;5075371;28;20170;-76
2023/10/27 04:44:53;;;;;;;3.30;3.10;;;12.80;99.90;;;;;;5076551;28;20221;-77
2023/10/27 04:47:19;;;;;;;3.70;3.50;;;12.80;99.90;;;;;;5075445;28;20236;-76
2023/10/27 04:49:48;;;;;;;3.77;3.53;;;12.80;99.90;;;;;;5076249;28;20213;-78
2023/10/27 04:52:14;;;;;;;3.20;3.00;;;12.80;99.90;;;;;;5083215;28;20175;-77
2023/10/27 04:54:39;;;;;;;3.73;3.53;;;12.80;99.90;;;;;;5090925;28;20198;-79
2023/10/27 04:57:05;;;;;;;3.63;3.40;;;12.80;99.90;;;;;;5092433;28;20171;-78
2023/10/27 04:59:32;;;;;;;3.93;3.63;;;12.90;99.90;;;;;;5076130;28;20168;-78
2023/10/27 05:01:58;;;;;;;3.13;2.93;;;12.90;99.90;;;;;;5076422;28;20268;-75
2023/10/27 05:04:25;;;;;;;3.40;3.10;;;13.00;99.90;;;;;;5075487;28;20171;-79
2023/10/27 05:06:51;;;;;;;3.67;3.20;;;13.00;99.90;;;;;;5074275;28;20179;-76
2023/10/27 05:09:18;;;;;;;3.60;3.30;;;13.00;99.90;;;;;;5073722;28;20218;-76
2023/10/27 05:11:45;;;;;;;3.10;2.90;;;13.10;99.90;;;;;;5073601;28;20185;-76
2023/10/27 05:14:12;;;;;;;3.20;3.00;;;13.10;99.90;;;;;;5075063;28;20163;-75
2023/10/27 05:16:38;;;;;;;3.17;2.97;;;13.10;99.90;;;;;;5075715;28;20278;-77
2023/10/27 05:19:04;;;;;;;2.63;2.53;;;13.20;99.90;;;;;;5073961;28;20244;-76
2023/10/27 05:21:30;;;;;;;3.40;3.20;;;13.20;99.90;;;;;;5074501;28;20171;-77
2023/10/27 05:23:56;;;;;;;3.10;2.90;;;13.20;99.90;;;;;;5077678;28;20200;-78
2023/10/27 05:26:22;;;;;;;2.43;2.33;;;13.20;99.90;;;;;;5085910;28;20231;-75
2023/10/27 05:28:49;;;;;;;3.27;2.60;;;13.10;99.90;;;;;;5075398;28;20175;-75
2023/10/27 05:31:15;;;;;;;2.60;2.50;;;13.00;99.90;;;;;;5075016;28;20167;-80
2023/10/27 05:33:41;;;;;;;2.60;2.27;;;13.00;99.90;;;;;;5074409;28;20175;-75
2023/10/27 05:36:07;;;;;;;2.87;2.40;;;13.00;99.90;;;;;;5074507;28;20208;-76
2023/10/27 05:38:32;;;;;;;2.80;2.60;;;13.00;99.90;;;;;;5074563;28;20720;-79
2023/10/27 05:40:58;;;;;;;2.60;2.50;;;13.00;99.90;;;;;;5074381;28;20179;-77
2023/10/27 05:43:25;;;;;;;2.40;2.30;;;13.00;99.90;;;;;;5074611;28;20190;-76
2023/10/27 05:45:51;;;;;;;2.50;2.40;;;13.00;99.90;;;;;;5074335;28;20171;-75
2023/10/27 05:48:17;;;;;;;2.40;2.30;;;13.00;99.90;;;;;;5074288;28;20186;-77
2023/10/27 05:50:43;;;;;;;3.07;2.20;;;13.00;99.90;;;;;;5074321;28;20203;-77
2023/10/27 05:53:09;;;;;;;2.13;2.03;;;13.10;99.90;;;;;;5074304;28;20228;-75
2023/10/27 05:55:34;;;;;;;1.97;1.93;;;13.20;99.90;;;;;;5074080;28;20175;-77
2023/10/27 05:58:00;;;;;;;2.27;2.17;;;13.20;99.90;;;;;;5074425;28;20221;-80
2023/10/27 06:00:26;;;;;;;2.00;1.90;;;13.20;99.90;;;;;;5073198;28;20208;-78
2023/10/27 06:02:52;;;;;;;2.10;2.00;;;13.20;99.90;;;;;;5076452;28;20167;-76
2023/10/27 06:05:20;;;;;;;2.33;2.13;;;13.20;99.90;;;;;;5074279;28;20199;-78
2023/10/27 06:07:46;;;;;;;2.43;2.00;;;13.20;99.90;;;;;;5072813;28;20185;-78
2023/10/27 06:10:12;;;;;;;2.23;2.10;;;13.20;99.90;;;;;;5074024;28;20205;-78
2023/10/27 06:12:38;;;;;;;2.00;1.90;;;13.20;99.90;;;;;;5073590;28;20171;-76
2023/10/27 06:15:04;;;;;;;2.00;1.90;;;13.20;99.90;;;;;;5073903;28;20183;-77
2023/10/27 06:17:30;;;;;;;2.10;2.00;;;13.20;99.90;;;;;;5077405;28;20598;-77
2023/10/27 06:19:56;;;;;;;2.60;2.50;;;13.20;99.90;;;;;;5088754;28;20194;-75
2023/10/27 06:22:22;;;;;;;3.23;2.00;;;13.20;99.90;;;;;;5085247;28;20180;-79
2023/10/27 06:24:47;;;;;;;2.30;2.10;;;13.10;99.90;;;;;;5083945;28;20206;-76
2023/10/27 06:27:13;;;;;;;3.20;3.00;;;13.10;99.90;;;;;;5074274;28;20236;-78
2023/10/27 06:29:39;;;;;;;2.40;2.10;;;13.10;99.90;;;;;;5072982;28;20217;-78
2023/10/27 06:32:05;;;;;;;2.63;2.53;;;13.00;99.90;;;;;;5074001;28;20171;-75
2023/10/27 06:34:32;;;;;;;2.77;2.60;;;13.00;99.90;;;;;;5073641;28;20206;-78
2023/10/27 06:36:58;;;;;;;2.77;2.57;;;13.00;99.90;;;;;;5073186;28;20220;-77
2023/10/27 06:39:24;;;;;;;2.53;2.33;;;12.90;99.90;;;;;;5073564;28;20501;-79
2023/10/27 06:41:50;;;;;;;2.90;2.37;;;12.90;99.90;;;;;;5073671;28;20186;-77
2023/10/27 06:44:17;;;;;;;2.27;2.17;;;12.90;99.90;;;;;;5074047;28;20171;-79
2023/10/27 06:46:44;;;;;;;3.60;2.63;;;12.90;99.90;;;;;;5074709;28;20269;-76
2023/10/27 06:49:11;;;;;;;2.77;2.57;;;12.90;99.90;;;;;;5076354;28;20723;-76
2023/10/27 06:51:37;;;;;;;2.20;2.10;;;12.80;99.90;;;;;;5078170;28;20171;-77
2023/10/27 06:54:03;;;;;;;2.30;2.20;;;12.80;99.90;;;;;;5078770;28;20180;-77
2023/10/27 06:56:28;;;;;;;1.70;1.70;;;12.80;99.90;;;;;;5079884;28;20175;-76
2023/10/27 06:58:54;;;;;;;2.00;1.90;;;12.90;99.90;;;;;;5077332;28;20693;-78
2023/10/27 07:01:20;;;;;;;2.37;2.27;;;12.90;99.90;;;;;;5076786;28;20209;-76
2023/10/27 07:03:50;;;;;;;2.10;2.00;;;12.90;99.90;;;;;;5073649;28;20237;-78
2023/10/27 07:06:16;;;;;;;2.37;2.23;;;12.80;99.90;;;;;;5074358;28;20556;-80
2023/10/27 07:08:45;;;;;;;4.03;2.40;;;12.70;99.90;;;;;;5072373;28;20253;-78
2023/10/27 07:11:11;;;;;;;2.57;2.37;;;12.70;99.90;;;;;;5072404;28;20673;-78
2023/10/27 07:13:37;;;;;;;2.20;2.10;;;12.70;99.90;;;;;;5073254;28;20256;-77
2023/10/27 07:16:03;;;;;;;2.53;2.23;;;12.70;99.90;;;;;;5073438;28;20288;-79
2023/10/27 07:18:29;;;;;;;1.90;1.80;;;12.70;99.90;;;;;;5074278;28;20258;-78
2023/10/27 07:20:55;;;;;;;2.00;1.90;;;12.80;99.90;;;;;;5075212;28;20621;-78
2023/10/27 07:23:20;;;;;;;1.80;1.80;;;12.70;99.90;;;;;;5075295;28;20179;-76
2023/10/27 07:25:46;;;;;;;1.90;1.80;;;12.70;99.90;;;;;;5086038;28;20226;-75
2023/10/27 07:28:13;;;;;;;2.27;1.80;;;12.70;99.90;;;;;;5079370;28;20171;-78
2023/10/27 07:30:38;;;;;;;2.70;1.83;;;12.80;99.90;;;;;;5074808;28;20684;-76
2023/10/27 07:33:05;;;;;;;1.70;1.70;;;12.80;99.90;;;;;;5072975;28;20180;-76
2023/10/27 07:35:31;;;;;;;1.90;1.80;;;12.80;99.90;;;;;;5074854;28;20171;-76
2023/10/27 07:37:58;;;;;;;2.43;2.00;;;12.90;99.90;;;;;;5086335;28;20173;-77
2023/10/27 07:40:24;;;;;;;2.10;2.00;;;12.90;99.90;;;;;;5078779;28;20567;-77
2023/10/27 07:42:50;;;;;;;2.00;1.80;;;12.90;99.90;;;;;;5076595;28;20168;-80
2023/10/27 07:45:16;;;;;;;1.60;1.50;;;12.90;99.90;;;;;;5076125;28;20237;-77
2023/10/27 07:47:42;;;;;;;1.70;1.70;;;12.90;99.90;;;;;;5077070;28;20172;-78
2023/10/27 07:50:08;;;;;;;1.40;1.40;;;12.90;99.90;;;;;;5076754;28;20206;-78
2023/10/27 07:52:34;;;;;;;1.77;1.67;;;12.90;99.90;;;;;;5076467;28;20178;-77
2023/10/27 07:55:00;;;;;;;1.53;1.43;;;12.90;99.90;;;;;;5076786;28;20176;-78
2023/10/27 07:57:27;;;;;;;2.10;1.50;;;12.80;99.90;;;;;;5076852;28;20257;-78
2023/10/27 07:59:52;;;;;;;1.20;1.20;;;13.10;99.90;;;;;;5076545;28;20179;-79
2023/10/27 08:02:18;;;;;;;1.43;1.33;;;12.90;99.90;;;;;;5075558;28;20172;-78
2023/10/27 08:04:44;;;;;;;1.20;1.20;;;14.40;99.90;;;;;;5077717;28;20233;-77
2023/10/27 08:07:10;;;;;;;2.13;1.50;;;13.00;99.90;;;;;;5077279;28;20167;-77
2023/10/27 08:09:36;;;;;;;1.60;1.30;;;13.00;99.90;;;;;;5080050;28;20735;-77
2023/10/27 08:12:03;;;;;;;1.20;1.20;;;13.00;99.90;;;;;;5080187;28;20204;-80
2023/10/27 08:14:29;;;;;;;1.10;1.10;;;13.10;99.90;;;;;;5078950;28;20175;-78
2023/10/27 08:16:55;;;;;;;1.20;1.20;;;13.10;99.90;;;;;;5077884;28;20183;-79
2023/10/27 08:19:23;;;;;;;1.30;1.10;;;13.20;99.90;;;;;;5076436;28;20238;-77
2023/10/27 08:21:50;;;;;;;1.10;1.00;;;13.20;99.90;;;;;;5077128;28;20173;-79
2023/10/27 08:24:16;;;;;;;1.67;1.57;;;13.30;99.90;;;;;;5076705;28;20176;-77
2023/10/27 08:26:43;;;;;;;1.07;1.07;;;13.30;99.90;;;;;;5076241;28;20312;-78
2023/10/27 08:29:09;;;;;;;1.10;1.10;;;13.40;99.90;;;;;;5076574;28;20249;-78
2023/10/27 08:31:35;;;;;;;0.90;0.90;;;13.40;99.90;;;;;;5076228;28;20282;-77
2023/10/27 08:34:04;;;;;;;0.93;0.70;;;13.40;99.90;;;;;;5074995;28;20279;-78
2023/10/27 08:36:29;;;;;;;2.50;1.60;;;13.40;99.90;;;;;;5074840;28;20179;-78
2023/10/27 08:38:55;;;;;;;1.53;1.10;;;13.40;99.90;;;;;;5075740;28;20185;-78
2023/10/27 08:41:23;;;;;;;1.23;1.23;;;13.40;99.90;;;;;;5080146;28;20176;-79
2023/10/27 08:43:49;;;;;;;1.43;1.33;;;13.40;99.90;;;;;;5093780;28;20223;-79
2023/10/27 08:46:16;;;;;;;0.90;0.90;;;13.40;99.90;;;;;;5081461;28;20275;-78
2023/10/27 08:48:42;;;;;;;0.90;0.90;;;13.40;99.90;;;;;;5075527;28;20261;-78
2023/10/27 08:51:09;;;;;;;0.80;0.80;;;13.40;99.90;;;;;;5074741;28;20671;-78
2023/10/27 08:53:42;;;;;;;0.70;0.70;;;13.30;99.90;;;;;;5076010;28;20191;-79
2023/10/27 08:56:12;;;;;;;0.90;0.90;;;13.40;99.90;;;;;;5076432;28;20171;-78
2023/10/27 08:58:47;;;;;;;0.77;0.77;;;13.40;99.90;;;;;;5077479;28;20180;-79
2023/10/27 09:01:13;;;;;;;0.77;0.70;;;13.50;99.90;;;;;;5088542;28;20168;-79
2023/10/27 09:03:39;;;;;;;2.00;0.70;;;13.30;99.90;;;;;;5076452;28;20213;-77
2023/10/27 09:06:06;;;;;;;1.27;1.10;;;13.30;99.90;;;;;;5076309;28;20179;-79
2023/10/27 09:08:32;;;;;;;1.07;1.07;;;13.30;99.90;;;;;;5077902;28;20176;-79
2023/10/27 09:10:59;;;;;;;1.33;1.10;;;13.30;99.90;;;;;;5080449;28;20612;-77
2023/10/27 09:13:25;;;;;;;1.00;1.00;;;13.20;99.90;;;;;;5075622;28;20213;-77
2023/10/27 09:15:51;;;;;;;1.00;1.00;;;13.20;99.90;;;;;;5075919;28;20171;-77
2023/10/27 09:18:18;;;;;;;0.80;0.80;;;13.10;99.90;;;;;;5075317;28;20175;-77
2023/10/27 09:20:52;;;;;;;1.43;0.70;;;13.20;99.90;;;;;;5075742;28;20170;-78
2023/10/27 09:23:19;;;;;;;2.47;0.83;;;13.10;99.90;;;;;;5085774;28;20173;-79
2023/10/27 09:25:46;;;;;;;0.90;0.90;;;13.10;99.90;;;;;;5075621;28;20222;-79
2023/10/27 09:28:13;;;;;;;0.93;0.80;;;13.00;99.90;;;;;;5075040;28;20174;-78
2023/10/27 09:30:41;;;;;;;1.07;1.07;;;12.90;99.90;;;;;;5075731;28;20193;-78
2023/10/27 09:33:18;;;;;;;1.10;1.10;;;13.00;99.90;;;;;;5075519;28;20165;-79
2023/10/27 09:35:46;;;;;;;1.70;1.30;;;13.00;99.90;;;;;;5076441;28;20518;-78
2023/10/27 09:38:13;;;;;;;1.13;1.03;;;12.90;99.90;;;;;;5075302;28;20168;-77
2023/10/27 09:40:40;;;;;;;0.80;0.80;;;12.90;99.90;;;;;;5073699;28;20228;-79
2023/10/27 09:43:16;;;;;;;0.90;0.90;;;11.00;99.90;;;;;;5076353;28;20175;-79
2023/10/27 09:45:53;;;;;;;0.90;0.90;;;13.00;99.90;;;;;;5075329;28;20154;-77
2023/10/27 09:48:26;;;;;;;0.93;0.93;;;13.00;99.90;;;;;;5074272;28;20178;-78
2023/10/27 09:51:10;;;;;;;1.00;1.00;;;13.00;99.90;;;;;;5074032;28;20222;-80
2023/10/27 09:53:37;;;;;;;0.90;0.90;;;13.00;99.90;;;;;;5073159;28;20178;-78
2023/10/27 09:56:03;;;;;;;1.33;1.13;;;13.10;99.90;;;;;;5076750;28;20179;-79
2023/10/27 09:58:34;;;;;;;1.10;1.10;;;13.20;99.90;;;;;;5086287;28;20625;-79
2023/10/27 10:01:04;;;;;;;1.30;1.30;;;13.30;99.90;;;;;;5076006;28;20304;-78
2023/10/27 10:03:31;;;;;;;1.00;1.00;;;13.30;99.90;;;;;;5075815;28;20250;-77
2023/10/27 10:06:09;;;;;;;1.17;1.17;;;13.40;99.90;;;;;;5073957;28;20639;-79
2023/10/27 10:08:35;;;;;;;1.43;1.40;;;13.40;99.90;;;;;;5074239;28;20478;-79
2023/10/27 10:11:19;;;;;;;1.73;1.70;;;13.50;99.90;;;;;;5076228;28;20213;-78
2023/10/27 10:13:44;;;;;;;2.30;2.10;;;13.60;99.90;;;;;;5075464;28;20170;-79
2023/10/27 10:16:12;;;;;;;2.00;1.90;;;13.70;99.90;;;;;;5078425;28;20179;-78
2023/10/27 10:18:38;;;;;;;1.43;1.43;;;13.70;99.90;;;;;;5074381;28;20161;-78
2023/10/27 10:21:06;;;;;;;1.37;1.20;;;13.80;99.90;;;;;;5073571;28;20179;-79
2023/10/27 10:23:38;;;;;;;1.03;1.03;;;14.00;99.90;;;;;;5073851;28;20660;-77
2023/10/27 10:26:04;;;;;;;0.50;0.50;;;14.10;99.90;;;;;;5073999;28;20222;-77
2023/10/27 10:28:36;;;;;;;0.40;0.40;;;14.10;99.90;;;;;;5073555;28;20171;-80
2023/10/27 10:31:11;;;;;;;0.63;0.63;;;14.20;99.90;;;;;;5072388;28;20224;-78
2023/10/27 10:33:45;;;;;;;0.30;0.30;;;14.20;99.90;;;;;;5074175;28;20186;-78
2023/10/27 10:36:15;;;;;;;0.30;0.30;;;14.10;99.90;;;;;;5075174;28;20178;-80
2023/10/27 10:38:50;;;;;;;0.40;0.40;;;14.10;99.90;;;;;;5093227;28;20195;-79
2023/10/27 10:41:18;;;;;;;0.60;0.60;;;14.10;99.90;;;;;;5083417;28;20182;-80
2023/10/27 10:43:45;;;;;;;0.40;0.40;;;14.10;99.90;;;;;;5082576;28;20171;-78
2023/10/27 10:46:12;;;;;;;0.90;0.30;;;14.00;99.90;;;;;;5075775;28;20175;-78
2023/10/27 10:48:41;;;;;;;0.20;0.20;;;14.10;99.90;;;;;;5074245;28;20631;-77
2023/10/27 10:51:14;;;;;;;0.53;0.53;;;14.20;99.90;;;;;;5074443;28;20203;-78
2023/10/27 10:53:41;;;;;;;1.00;0.90;;;14.10;99.90;;;;;;5073644;28;20183;-78
2023/10/27 10:56:07;;;;;;;1.07;0.80;;;14.20;99.90;;;;;;5074816;28;20518;-77
2023/10/27 10:58:40;;;;;;;0.47;0.47;;;14.40;99.90;;;;;;5072538;28;20190;-77
2023/10/27 11:01:18;;;;;;;0.50;0.50;;;14.60;99.90;;;;;;5073977;28;20213;-79
2023/10/27 11:03:52;;;;;;;0.60;0.60;;;14.70;99.90;;;;;;5074040;28;20649;-77
2023/10/27 11:06:25;;;;;;;2.07;0.80;;;14.70;99.90;;;;;;5077751;28;20579;-78
2023/10/27 11:08:51;;;;;;;0.67;0.67;;;14.90;99.90;;;;;;5080771;28;20163;-79
2023/10/27 11:11:17;;;;;;;0.70;0.70;;;15.00;99.90;;;;;;5074830;28;20214;-78
2023/10/27 11:13:57;;;;;;;0.70;0.70;;;14.90;99.90;;;;;;5073614;28;20272;-79
2023/10/27 11:16:24;;;;;;;0.90;0.90;;;14.80;99.90;;;;;;5073778;28;20168;-79
2023/10/27 11:18:59;;;;;;;1.00;1.00;;;14.80;99.90;;;;;;5077457;28;20174;-78
2023/10/27 11:21:27;;;;;;;0.67;0.67;;;14.80;99.90;;;;;;5087001;28;20196;-78
2023/10/27 11:23:53;;;;;;;1.43;1.30;;;14.70;99.90;;;;;;5076075;28;20182;-77
2023/10/27 11:26:23;;;;;;;0.87;0.87;;;14.80;99.90;;;;;;5072655;28;20222;-76
2023/10/27 11:28:49;;;;;;;1.00;1.00;;;14.80;99.90;;;;;;5072097;28;20193;-77
2023/10/27 11:31:39;;;;;;;0.93;0.93;;;14.80;99.90;;;;;;5071602;28;20206;-78
2023/10/27 11:34:07;;;;;;;1.10;1.10;;;14.90;99.90;;;;;;5075323;28;20242;-78
2023/10/27 11:36:38;;;;;;;0.97;0.93;;;14.70;99.90;;;;;;5087572;28;20559;-78
2023/10/27 11:39:33;;;;;;;0.70;0.70;;;14.70;99.90;;;;;;5096099;28;20174;-77
2023/10/27 11:42:00;;;;;;;0.90;0.90;;;14.70;99.90;;;;;;5086164;28;20183;-78
2023/10/27 11:44:44;;;;;;;0.80;0.80;;;14.80;99.90;;;;;;5076535;28;20176;-77
2023/10/27 11:47:10;;;;;;;1.20;0.90;;;14.90;99.90;;;;;;5073497;28;20203;-79
2023/10/27 11:49:35;;;;;;;1.30;1.20;;;14.90;99.90;;;;;;5072929;28;20196;-77
2023/10/27 11:52:03;;;;;;;0.90;0.90;;;15.10;99.90;;;;;;5073430;28;20169;-77
2023/10/27 11:54:28;;;;;;;1.00;1.00;;;15.10;99.90;;;;;;5073186;28;20579;-77
2023/10/27 11:56:54;;;;;;;1.00;1.00;;;15.20;99.90;;;;;;5071835;28;20647;-79
2023/10/27 11:59:25;;;;;;;0.73;0.73;;;15.20;99.90;;;;;;5073951;28;20569;-78
2023/10/27 12:01:51;;;;;;;4.53;1.00;;;15.20;99.90;;;;;;5085996;28;20175;-79
2023/10/27 12:04:16;;;;;;;1.00;0.90;;;15.20;99.90;;;;;;5074654;28;20244;-78
2023/10/27 12:06:43;;;;;;;1.10;1.00;;;15.10;99.90;;;;;;5073624;28;20784;-77
2023/10/27 12:09:11;;;;;;;1.20;1.20;;;15.00;99.90;;;;;;5072035;28;20198;-79
2023/10/27 12:11:43;;;;;;;1.00;1.00;;;15.10;99.90;;;;;;5073038;28;20171;-80
2023/10/27 12:14:12;;;;;;;4.83;2.77;;;14.70;99.90;;;;;;5073364;28;20246;-79
2023/10/27 12:16:37;;;;;;;2.50;2.30;;;15.10;99.90;;;;;;5073887;28;20171;-79
2023/10/27 12:19:03;;;;;;;2.20;2.00;;;15.20;99.90;;;;;;5074734;28;20665;-77
2023/10/27 12:21:29;;;;;;;2.03;1.93;;;15.30;99.90;;;;;;5073575;28;20175;-79
2023/10/27 12:23:55;;;;;;;1.87;1.70;;;15.40;99.90;;;;;;5073582;28;20176;-79
2023/10/27 12:26:21;;;;;;;2.10;1.60;;;15.50;99.90;;;;;;5075302;28;20226;-79
2023/10/27 12:28:47;;;;;;;1.77;1.67;;;15.60;99.90;;;;;;5077760;28;20163;-78
2023/10/27 12:31:13;;;;;;;1.63;1.53;;;15.60;99.90;;;;;;5077120;28;20259;-79
2023/10/27 12:33:40;;;;;;;1.90;1.80;;;15.70;99.90;;;;;;5080974;28;20200;-78
2023/10/27 12:36:10;;;;;;;2.03;1.93;;;15.70;99.90;;;;;;5091940;28;20231;-80
2023/10/27 12:38:37;;;;;;;1.50;1.40;;;15.80;99.90;;;;;;5082236;28;20553;-77
2023/10/27 12:41:04;;;;;;;1.60;1.50;;;15.80;99.90;;;;;;5076379;28;20167;-78
2023/10/27 12:43:30;;;;;;;1.60;1.50;;;15.80;99.90;;;;;;5075643;28;20667;-78
2023/10/27 12:45:56;;;;;;;1.63;1.47;;;15.90;99.90;;;;;;5076444;28;20665;-77
2023/10/27 12:48:22;;;;;;;1.70;1.60;;;15.80;99.90;;;;;;5075302;28;20171;-78